Time;durP1;ratioP1;P1;durP2;ratioP2;P2;SDS_P1;SDS_P2;PMS_P1;PMS_P2;Temp;Humidity;BMP_temperature;BMP_pressure;BME280_temperature;BME280_humidity;BME280_pressure;Samples;Min_cycle;Max_cycle;Signal;HPM_P1;HPM_P2
2022/08/04 00:02:26;;;;;;;1.20;0.60;;;24.40;99.90;;;;;;6726890;88;20204;-77
2022/08/04 00:12:32;;;;;;;1.50;0.70;;;24.30;99.90;;;;;;6729226;88;20212;-75
2022/08/04 00:22:34;;;;;;;1.60;0.80;;;24.10;99.90;;;;;;6733018;88;20227;-75
2022/08/04 00:32:35;;;;;;;0.90;0.60;;;23.80;99.90;;;;;;6730754;88;20327;-76
2022/08/04 00:42:48;;;;;;;1.12;0.70;;;23.80;99.90;;;;;;6731327;88;20307;-76
2022/08/04 00:53:05;;;;;;;1.00;0.60;;;23.50;99.90;;;;;;6731235;88;20205;-76
2022/08/04 01:03:21;;;;;;;1.75;1.12;;;23.30;99.90;;;;;;6732585;88;20313;-75
2022/08/04 01:13:59;;;;;;;1.12;0.50;;;23.20;99.90;;;;;;6728540;88;20186;-74
2022/08/04 01:24:36;;;;;;;1.37;0.70;;;22.70;99.90;;;;;;6730613;88;20205;-76
2022/08/04 01:34:50;;;;;;;3.47;0.82;;;22.50;99.90;;;;;;6730081;88;20224;-75
2022/08/04 01:44:54;;;;;;;1.25;0.65;;;22.40;99.90;;;;;;6729436;88;20186;-76
2022/08/04 01:54:55;;;;;;;1.10;0.60;;;22.30;99.90;;;;;;6728659;88;20648;-76
2022/08/04 02:04:56;;;;;;;1.10;0.60;;;22.30;99.90;;;;;;6726324;88;20206;-76
2022/08/04 02:15:17;;;;;;;1.90;0.90;;;22.30;99.90;;;;;;6730420;88;20180;-76
2022/08/04 02:25:23;;;;;;;1.87;0.70;;;22.20;99.90;;;;;;6730185;88;20235;-75
2022/08/04 02:35:26;;;;;;;1.00;0.60;;;22.20;99.90;;;;;;6732535;88;20284;-75
2022/08/04 02:45:29;;;;;;;1.23;0.60;;;22.10;99.90;;;;;;6729574;88;20180;-76
2022/08/04 02:55:31;;;;;;;0.98;0.60;;;22.00;99.90;;;;;;6731378;88;20255;-76
2022/08/04 03:05:53;;;;;;;1.00;0.43;;;21.80;99.90;;;;;;6733009;88;20208;-75
2022/08/04 03:15:59;;;;;;;0.95;0.57;;;21.60;99.90;;;;;;6728514;88;20234;-76
2022/08/04 03:26:40;;;;;;;1.05;0.62;;;21.40;99.90;;;;;;6728859;88;20206;-75
2022/08/04 03:37:12;;;;;;;1.23;0.70;;;21.20;99.90;;;;;;6725267;88;20180;-76
2022/08/04 03:47:27;;;;;;;1.50;0.70;;;21.20;99.90;;;;;;6726198;88;20308;-75
2022/08/04 03:57:57;;;;;;;1.77;0.75;;;21.20;99.90;;;;;;6725495;88;20291;-76
2022/08/04 04:08:18;;;;;;;1.42;0.73;;;21.10;99.90;;;;;;6730888;88;20207;-75
2022/08/04 04:18:50;;;;;;;0.77;0.50;;;21.00;99.90;;;;;;6729274;88;20192;-75
2022/08/04 04:29:00;;;;;;;1.02;0.60;;;20.90;99.90;;;;;;6733590;88;20198;-75
2022/08/04 04:39:20;;;;;;;1.12;0.60;;;20.80;99.90;;;;;;6730215;88;20208;-76
2022/08/04 04:49:35;;;;;;;1.70;0.70;;;20.80;99.90;;;;;;6729648;77;20739;-79
2022/08/04 04:59:41;;;;;;;1.60;0.85;;;20.90;99.90;;;;;;6717819;88;20226;-79
2022/08/04 05:10:00;;;;;;;1.50;0.70;;;21.00;99.90;;;;;;6720307;88;20254;-78
2022/08/04 05:20:11;;;;;;;1.55;0.98;;;21.00;99.90;;;;;;6719276;88;20270;-79
2022/08/04 05:30:13;;;;;;;1.90;1.00;;;21.30;99.90;;;;;;6719716;88;20193;-79
2022/08/04 05:40:16;;;;;;;2.47;0.93;;;21.30;99.90;;;;;;6717619;88;20695;-78
2022/08/04 05:50:18;;;;;;;1.33;0.90;;;21.70;99.90;;;;;;6719571;88;20201;-78
2022/08/04 06:00:20;;;;;;;1.35;0.88;;;22.10;99.90;;;;;;6735816;88;20186;-80
2022/08/04 06:10:21;;;;;;;1.20;0.80;;;22.70;99.90;;;;;;6763806;88;20206;-80
2022/08/04 06:20:27;;;;;;;1.60;1.00;;;23.20;99.90;;;;;;6749387;88;20355;-78
2022/08/04 06:30:29;;;;;;;1.62;0.95;;;24.00;99.90;;;;;;6741090;88;20293;-81
2022/08/04 06:40:31;;;;;;;1.57;1.10;;;24.40;99.90;;;;;;6726264;88;20207;-81
2022/08/04 06:50:35;;;;;;;1.50;1.00;;;24.80;99.90;;;;;;6724774;88;20238;-81
2022/08/04 07:00:39;;;;;;;1.67;1.00;;;25.40;99.90;;;;;;6724808;88;20624;-81
2022/08/04 07:10:40;;;;;;;1.50;0.95;;;26.10;99.90;;;;;;6726184;88;20211;-78
2022/08/04 07:20:45;;;;;;;1.48;0.88;;;26.70;99.90;;;;;;6758049;88;20270;-80
2022/08/04 07:30:47;;;;;;;1.92;1.12;;;27.20;99.90;;;;;;6750224;88;20177;-79
2022/08/04 07:40:48;;;;;;;1.33;0.90;;;27.80;99.80;;;;;;6721906;88;20686;-79
2022/08/04 07:50:50;;;;;;;1.20;0.90;;;28.50;98.60;;;;;;6731417;88;20264;-78
2022/08/04 08:00:51;;;;;;;;;;;29.10;97.40;;;;;;6739975;88;20197;-78
2022/08/04 08:10:52;;;;;;;1.67;0.85;;;30.10;95.50;;;;;;6733688;88;20198;-78
2022/08/04 08:20:54;;;;;;;1.20;0.83;;;29.90;94.80;;;;;;6735528;88;20276;-77
2022/08/04 08:30:54;;;;;;;1.10;0.80;;;30.20;93.80;;;;;;6738739;88;20243;-78
2022/08/04 08:41:29;;;;;;;1.30;0.90;;;31.10;93.30;;;;;;6737435;88;20190;-78
2022/08/04 08:51:57;;;;;;;1.85;0.90;;;32.00;92.10;;;;;;6741290;88;20211;-79
2022/08/04 09:02:23;;;;;;;1.10;0.88;;;32.80;91.50;;;;;;6739199;88;20221;-78
2022/08/04 09:12:37;;;;;;;1.23;0.90;;;33.50;90.40;;;;;;6736945;88;20355;-78
2022/08/04 09:22:48;;;;;;;1.50;0.88;;;34.40;88.10;;;;;;6738653;88;20672;-79
2022/08/04 09:33:16;;;;;;;1.35;1.05;;;35.60;85.80;;;;;;6742905;88;20736;-79
2022/08/04 09:43:47;;;;;;;1.10;1.00;;;37.30;83.00;;;;;;6741361;88;20213;-79
2022/08/04 09:54:17;;;;;;;1.15;0.90;;;38.10;79.30;;;;;;6740721;87;20212;-79
2022/08/04 10:04:18;;;;;;;1.10;0.90;;;40.00;76.70;;;;;;6734778;88;20180;-79
2022/08/04 10:14:31;;;;;;;0.85;0.68;;;40.40;70.70;;;;;;6736913;88;20219;-77
2022/08/04 10:25:00;;;;;;;1.30;0.93;;;41.80;69.10;;;;;;6731332;88;20192;-76
2022/08/04 10:35:10;;;;;;;1.10;0.80;;;41.60;65.60;;;;;;6732762;88;20189;-76
2022/08/04 10:45:24;;;;;;;1.15;0.80;;;40.50;65.30;;;;;;6728018;88;20193;-76
2022/08/04 10:55:35;;;;;;;1.00;0.90;;;39.80;65.80;;;;;;6730281;77;20167;-75
2022/08/04 11:05:49;;;;;;;1.00;0.80;;;39.30;67.00;;;;;;6733781;88;20202;-76
2022/08/04 11:15:54;;;;;;;0.93;0.62;;;39.00;66.20;;;;;;6732102;88;20224;-76
2022/08/04 11:26:23;;;;;;;1.00;0.70;;;39.60;63.00;;;;;;6734988;88;20212;-75
2022/08/04 11:36:43;;;;;;;1.00;0.70;;;41.20;60.70;;;;;;6733517;88;20177;-75
2022/08/04 11:46:52;;;;;;;0.80;0.70;;;41.70;56.70;;;;;;6734903;88;20304;-75
2022/08/04 11:56:53;;;;;;;1.20;0.65;;;42.50;53.60;;;;;;6731809;88;20186;-76
2022/08/04 12:07:05;;;;;;;1.05;0.77;;;40.30;55.50;;;;;;6733469;88;20196;-75
2022/08/04 12:17:06;;;;;;;1.85;1.12;;;39.10;59.60;;;;;;6732434;88;20189;-75
2022/08/04 12:27:12;;;;;;;0.98;0.80;;;37.90;60.20;;;;;;6734827;88;20729;-75
2022/08/04 12:37:55;;;;;;;1.27;0.80;;;36.70;64.50;;;;;;6733618;88;20671;-77
2022/08/04 12:48:00;;;;;;;1.37;0.75;;;36.00;66.20;;;;;;6730916;88;20220;-75
2022/08/04 12:58:09;;;;;;;1.20;0.90;;;35.80;67.60;;;;;;6732826;88;20249;-75
2022/08/04 13:08:12;;;;;;;1.15;0.85;;;35.50;67.90;;;;;;6731831;88;20465;-75
2022/08/04 13:18:13;;;;;;;0.90;0.60;;;35.10;69.10;;;;;;6731971;88;20714;-77
2022/08/04 13:28:25;;;;;;;1.00;0.68;;;34.30;69.90;;;;;;6728094;88;20211;-75
2022/08/04 13:38:27;;;;;;;0.93;0.60;;;34.30;69.10;;;;;;6732619;88;21052;-75
2022/08/04 13:48:36;;;;;;;0.90;0.60;;;34.00;69.10;;;;;;6733757;88;20205;-75
2022/08/04 13:58:42;;;;;;;0.90;0.50;;;34.50;69.00;;;;;;6733197;88;20205;-75
2022/08/04 14:08:49;;;;;;;1.00;0.70;;;35.10;68.40;;;;;;6737390;88;20222;-75
2022/08/04 14:18:59;;;;;;;1.20;0.70;;;36.70;67.60;;;;;;6733750;88;20223;-74
2022/08/04 14:29:11;;;;;;;1.80;0.88;;;37.80;66.50;;;;;;6730790;88;20211;-76
2022/08/04 14:39:12;;;;;;;1.00;0.70;;;38.20;66.10;;;;;;6733316;88;20219;-74
2022/08/04 14:49:12;;;;;;;0.90;0.60;;;38.40;65.10;;;;;;6733376;88;20173;-75
2022/08/04 14:59:13;;;;;;;1.20;0.82;;;37.70;65.30;;;;;;6732497;88;20194;-75
2022/08/04 15:09:13;;;;;;;1.08;0.80;;;36.30;66.50;;;;;;6731289;88;20198;-75
2022/08/04 15:19:14;;;;;;;1.20;0.80;;;35.50;68.40;;;;;;6732524;88;20251;-75
2022/08/04 15:29:22;;;;;;;1.52;0.90;;;35.90;69.00;;;;;;6733262;88;20849;-75
2022/08/04 15:39:34;;;;;;;1.75;1.10;;;35.70;68.90;;;;;;6735462;88;20785;-75
2022/08/04 15:49:36;;;;;;;1.20;0.80;;;35.30;69.60;;;;;;6736885;88;20340;-76
2022/08/04 16:00:01;;;;;;;1.20;0.90;;;34.50;70.70;;;;;;6739135;88;20217;-76
2022/08/04 16:10:31;;;;;;;1.30;0.80;;;33.60;71.00;;;;;;6742309;88;20620;-76
2022/08/04 16:20:34;;;;;;;1.65;0.85;;;32.70;72.70;;;;;;6739248;88;20362;-76
2022/08/04 16:30:40;;;;;;;1.12;0.70;;;32.10;74.70;;;;;;6731624;88;20220;-75
2022/08/04 16:40:44;;;;;;;1.30;0.80;;;29.80;88.40;;;;;;6735175;88;20235;-76
2022/08/04 16:50:51;;;;;;;1.73;0.90;;;27.60;99.90;;;;;;6728592;88;20185;-74
2022/08/04 17:00:52;;;;;;;1.62;0.80;;;26.80;99.90;;;;;;6731870;77;20189;-76
2022/08/04 17:10:53;;;;;;;1.67;0.90;;;27.00;99.90;;;;;;6727568;88;20203;-77
2022/08/04 17:20:56;;;;;;;1.42;0.80;;;27.10;99.90;;;;;;6710897;88;20646;-76
2022/08/04 17:30:58;;;;;;;0.98;0.65;;;27.20;99.90;;;;;;6711138;88;22408;-76
2022/08/04 17:41:01;;;;;;;2.67;1.00;;;27.30;99.90;;;;;;6707410;88;20980;-76
2022/08/04 17:51:15;;;;;;;2.33;0.98;;;28.50;99.90;;;;;;6704278;88;20189;-76
2022/08/04 18:01:15;;;;;;;1.77;1.00;;;29.10;99.90;;;;;;6709700;88;20237;-76
2022/08/04 18:11:19;;;;;;;1.80;0.80;;;28.70;99.90;;;;;;6710377;88;20290;-76
2022/08/04 18:21:19;;;;;;;1.20;0.80;;;29.10;99.90;;;;;;6704873;88;20206;-76
2022/08/04 18:31:20;;;;;;;1.48;0.82;;;28.70;99.90;;;;;;6707439;88;20189;-76
2022/08/04 18:41:21;;;;;;;1.60;1.00;;;28.50;99.90;;;;;;6717656;88;20237;-76
2022/08/04 18:51:22;;;;;;;1.45;0.82;;;28.50;99.90;;;;;;6723808;88;20210;-77
2022/08/04 19:01:22;;;;;;;0.98;0.77;;;28.40;99.90;;;;;;6719852;88;20219;-77
2022/08/04 19:11:23;;;;;;;1.90;0.95;;;28.00;99.90;;;;;;6715370;88;20641;-77
2022/08/04 19:21:24;;;;;;;2.00;1.00;;;27.80;99.90;;;;;;6716493;88;20193;-77
2022/08/04 19:31:24;;;;;;;1.80;1.20;;;27.50;99.90;;;;;;6716375;88;20166;-77
2022/08/04 19:41:26;;;;;;;2.25;1.33;;;27.60;99.90;;;;;;6715849;88;20222;-75
2022/08/04 19:51:37;;;;;;;2.62;1.77;;;27.20;99.90;;;;;;6716533;88;20201;-77
2022/08/04 20:01:39;;;;;;;2.05;1.20;;;26.80;99.90;;;;;;6722435;88;20263;-76
2022/08/04 20:11:39;;;;;;;2.05;1.40;;;26.40;99.90;;;;;;6714946;88;20299;-76
2022/08/04 20:21:40;;;;;;;1.77;0.98;;;26.10;99.90;;;;;;6707225;88;20719;-75
2022/08/04 20:31:40;;;;;;;2.33;0.77;;;26.00;99.90;;;;;;6710234;88;20234;-77
2022/08/04 20:41:41;;;;;;;1.25;0.70;;;25.70;99.90;;;;;;6709318;88;20655;-75
2022/08/04 20:51:42;;;;;;;1.52;0.80;;;25.50;99.90;;;;;;6723535;88;20711;-76
2022/08/04 21:01:42;;;;;;;1.45;0.88;;;25.40;99.90;;;;;;6717414;88;21031;-77
2022/08/04 21:11:43;;;;;;;1.50;0.90;;;25.30;99.90;;;;;;6721330;88;20777;-77
2022/08/04 21:21:44;;;;;;;2.75;1.00;;;25.10;99.90;;;;;;6720210;88;20610;-77
2022/08/04 21:31:45;;;;;;;2.17;1.05;;;24.90;99.90;;;;;;6721555;88;20199;-79
2022/08/04 21:41:45;;;;;;;4.12;1.37;;;24.90;99.90;;;;;;6721449;88;20265;-78
2022/08/04 21:51:46;;;;;;;1.95;0.73;;;24.90;99.90;;;;;;6720811;88;20240;-79
2022/08/04 22:01:47;;;;;;;1.67;0.85;;;24.80;99.90;;;;;;6722343;88;20974;-81
2022/08/04 22:11:48;;;;;;;2.50;0.90;;;24.80;99.90;;;;;;6725866;88;20255;-81
2022/08/04 22:21:48;;;;;;;2.33;1.15;;;24.70;99.90;;;;;;6725553;88;20207;-79
2022/08/04 22:31:49;;;;;;;1.30;0.77;;;24.60;99.90;;;;;;6728346;88;20218;-81
2022/08/04 22:41:51;;;;;;;1.77;0.83;;;24.50;99.90;;;;;;6724608;88;20608;-81
2022/08/04 22:51:52;;;;;;;2.05;0.90;;;24.40;99.90;;;;;;6726772;88;20491;-80
2022/08/04 23:01:53;;;;;;;1.35;0.80;;;24.40;99.90;;;;;;6733409;88;20224;-80
2022/08/04 23:11:55;;;;;;;1.73;0.90;;;24.50;99.90;;;;;;6733811;88;20286;-80
2022/08/04 23:21:56;;;;;;;1.62;1.00;;;24.50;99.90;;;;;;6737389;88;20285;-77
2022/08/04 23:31:56;;;;;;;1.40;0.82;;;24.20;99.90;;;;;;6726947;88;20328;-79
2022/08/04 23:41:57;;;;;;;1.30;0.85;;;23.90;99.90;;;;;;6724494;88;20247;-78
2022/08/04 23:51:57;;;;;;;1.85;1.00;;;23.50;99.90;;;;;;6725923;88;20210;-79
